sensor_id;sensor_type;location;lat;lon;timestamp;pressure;altitude;pressure_sealevel;temperature;humidity
7940;BME280;4015;48.888;9.226;2023-05-10T00:00:25;159023.06;;;15.04;100.00
7940;BME280;4015;48.888;9.226;2023-05-10T00:02:50;159016.66;;;15.02;100.00
7940;BME280;4015;48.888;9.226;2023-05-10T00:05:15;158987.22;;;14.90;100.00
7940;BME280;4015;48.888;9.226;2023-05-10T00:07:41;158997.44;;;14.94;100.00
7940;BME280;4015;48.888;9.226;2023-05-10T00:10:09;158920.59;;;14.64;100.00
7940;BME280;4015;48.888;9.226;2023-05-10T00:12:35;158906.50;;;14.58;100.00
7940;BME280;4015;48.888;9.226;2023-05-10T00:15:01;158866.78;;;14.42;100.00
7940;BME280;4015;48.888;9.226;2023-05-10T00:17:26;158853.97;;;14.37;100.00
7940;BME280;4015;48.888;9.226;2023-05-10T00:19:51;158846.31;;;14.34;100.00
7940;BME280;4015;48.888;9.226;2023-05-10T00:22:17;158821.97;;;14.24;100.00
7940;BME280;4015;48.888;9.226;2023-05-10T00:24:42;158820.69;;;14.24;100.00
7940;BME280;4015;48.888;9.226;2023-05-10T00:27:07;158788.69;;;14.11;100.00
7940;BME280;4015;48.888;9.226;2023-05-10T00:29:33;158783.56;;;14.09;100.00
7940;BME280;4015;48.888;9.226;2023-05-10T00:31:58;158756.69;;;13.98;100.00
7940;BME280;4015;48.888;9.226;2023-05-10T00:34:24;158766.94;;;14.02;100.00
7940;BME280;4015;48.888;9.226;2023-05-10T00:36:49;158741.31;;;13.92;100.00
7940;BME280;4015;48.888;9.226;2023-05-10T00:39:15;158732.34;;;13.89;100.00
7940;BME280;4015;48.888;9.226;2023-05-10T00:41:40;158709.31;;;13.80;100.00
7940;BME280;4015;48.888;9.226;2023-05-10T00:44:05;158709.31;;;13.80;100.00
7940;BME280;4015;48.888;9.226;2023-05-10T00:46:31;158728.50;;;13.87;100.00
7940;BME280;4015;48.888;9.226;2023-05-10T00:48:57;158713.16;;;13.81;100.00
7940;BME280;4015;48.888;9.226;2023-05-10T00:51:22;158690.13;;;13.72;100.00
7940;BME280;4015;48.888;9.226;2023-05-10T00:53:49;158678.59;;;13.67;100.00
7940;BME280;4015;48.888;9.226;2023-05-10T00:56:15;158690.13;;;13.72;100.00
7940;BME280;4015;48.888;9.226;2023-05-10T00:58:41;158684.97;;;13.70;100.00
7940;BME280;4015;48.888;9.226;2023-05-10T01:01:07;158697.78;;;13.75;100.00
7940;BME280;4015;48.888;9.226;2023-05-10T01:03:34;158684.97;;;13.70;100.00
7940;BME280;4015;48.888;9.226;2023-05-10T01:06:01;158673.50;;;13.65;100.00
7940;BME280;4015;48.888;9.226;2023-05-10T01:08:26;158668.34;;;13.63;100.00
7940;BME280;4015;48.888;9.226;2023-05-10T01:10:52;158664.50;;;13.62;100.00
7940;BME280;4015;48.888;9.226;2023-05-10T01:13:30;158642.78;;;13.53;100.00
7940;BME280;4015;48.888;9.226;2023-05-10T01:15:57;158651.72;;;13.57;100.00
7940;BME280;4015;48.888;9.226;2023-05-10T01:18:23;158651.72;;;13.57;100.00
7940;BME280;4015;48.888;9.226;2023-05-10T01:20:55;158661.97;;;13.61;100.00
7940;BME280;4015;48.888;9.226;2023-05-10T01:23:31;158623.59;;;13.45;100.00
7940;BME280;4015;48.888;9.226;2023-05-10T01:26:07;158637.63;;;13.51;100.00
7940;BME280;4015;48.888;9.226;2023-05-10T01:31:23;158628.69;;;13.47;100.00
7940;BME280;4015;48.888;9.226;2023-05-10T01:33:59;158623.59;;;13.45;100.00
7940;BME280;4015;48.888;9.226;2023-05-10T01:36:32;158595.44;;;13.34;100.00
7940;BME280;4015;48.888;9.226;2023-05-10T01:39:17;158599.25;;;13.36;100.00
7940;BME280;4015;48.888;9.226;2023-05-10T01:41:54;158603.09;;;13.37;100.00
7940;BME280;4015;48.888;9.226;2023-05-10T01:47:38;158626.16;;;13.46;100.00
7940;BME280;4015;48.888;9.226;2023-05-10T01:50:10;158622.25;;;13.45;100.00
7940;BME280;4015;48.888;9.226;2023-05-10T01:52:42;158613.34;;;13.41;100.00
7940;BME280;4015;48.888;9.226;2023-05-10T01:55:16;158624.88;;;13.46;100.00
7940;BME280;4015;48.888;9.226;2023-05-10T01:57:44;158635.06;;;13.50;100.00
7940;BME280;4015;48.888;9.226;2023-05-10T02:00:12;158605.63;;;13.38;100.00
7940;BME280;4015;48.888;9.226;2023-05-10T02:02:40;158603.09;;;13.37;100.00
7940;BME280;4015;48.888;9.226;2023-05-10T02:05:08;158597.97;;;13.35;100.00
7940;BME280;4015;48.888;9.226;2023-05-10T02:07:36;158599.25;;;13.36;100.00
7940;BME280;4015;48.888;9.226;2023-05-10T02:10:06;158605.63;;;13.38;100.00
7940;BME280;4015;48.888;9.226;2023-05-10T02:12:36;158603.09;;;13.37;100.00
7940;BME280;4015;48.888;9.226;2023-05-10T02:15:04;158608.22;;;13.39;100.00
7940;BME280;4015;48.888;9.226;2023-05-10T02:17:31;158605.63;;;13.38;100.00
7940;BME280;4015;48.888;9.226;2023-05-10T02:19:58;158596.72;;;13.35;100.00
7940;BME280;4015;48.888;9.226;2023-05-10T02:22:26;158583.91;;;13.30;100.00
7940;BME280;4015;48.888;9.226;2023-05-10T02:24:51;158580.06;;;13.28;100.00
7940;BME280;4015;48.888;9.226;2023-05-10T02:27:19;158595.44;;;13.34;100.00
7940;BME280;4015;48.888;9.226;2023-05-10T02:29:45;158603.09;;;13.37;100.00
7940;BME280;4015;48.888;9.226;2023-05-10T02:32:12;158596.72;;;13.35;100.00
7940;BME280;4015;48.888;9.226;2023-05-10T02:34:38;158578.78;;;13.28;100.00
7940;BME280;4015;48.888;9.226;2023-05-10T02:37:04;158600.53;;;13.36;100.00
7940;BME280;4015;48.888;9.226;2023-05-10T02:39:31;158601.81;;;13.37;100.00
7940;BME280;4015;48.888;9.226;2023-05-10T02:41:57;158571.09;;;13.25;100.00
7940;BME280;4015;48.888;9.226;2023-05-10T02:44:23;158581.34;;;13.29;100.00
7940;BME280;4015;48.888;9.226;2023-05-10T02:46:52;158604.34;;;13.38;100.00
7940;BME280;4015;48.888;9.226;2023-05-10T02:49:18;158610.78;;;13.40;100.00
7940;BME280;4015;48.888;9.226;2023-05-10T02:51:49;158612.06;;;13.41;100.00
7940;BME280;4015;48.888;9.226;2023-05-10T02:54:19;158621.00;;;13.44;100.00
7940;BME280;4015;48.888;9.226;2023-05-10T02:56:56;158621.00;;;13.44;100.00
7940;BME280;4015;48.888;9.226;2023-05-10T02:59:22;158631.25;;;13.48;100.00
7940;BME280;4015;48.888;9.226;2023-05-10T03:01:47;158650.44;;;13.56;100.00
7940;BME280;4015;48.888;9.226;2023-05-10T03:04:12;158636.34;;;13.50;100.00
7940;BME280;4015;48.888;9.226;2023-05-10T03:06:38;158650.44;;;13.56;100.00
7940;BME280;4015;48.888;9.226;2023-05-10T03:09:04;158632.53;;;13.49;100.00
7940;BME280;4015;48.888;9.226;2023-05-10T03:14:56;158640.22;;;13.52;100.00
7940;BME280;4015;48.888;9.226;2023-05-10T03:17:30;158651.72;;;13.57;100.00
7940;BME280;4015;48.888;9.226;2023-05-10T03:19:58;158668.34;;;13.63;100.00
7940;BME280;4015;48.888;9.226;2023-05-10T03:22:34;158661.97;;;13.61;100.00
7940;BME280;4015;48.888;9.226;2023-05-10T03:25:05;158679.88;;;13.68;100.00
7940;BME280;4015;48.888;9.226;2023-05-10T03:27:32;158664.50;;;13.62;100.00
7940;BME280;4015;48.888;9.226;2023-05-10T03:29:57;158655.59;;;13.58;100.00
7940;BME280;4015;48.888;9.226;2023-05-10T03:32:23;158668.34;;;13.63;100.00
7940;BME280;4015;48.888;9.226;2023-05-10T03:34:48;158693.97;;;13.73;100.00
7940;BME280;4015;48.888;9.226;2023-05-10T03:37:14;158691.41;;;13.72;100.00
7940;BME280;4015;48.888;9.226;2023-05-10T03:39:39;158688.84;;;13.71;100.00
7940;BME280;4015;48.888;9.226;2023-05-10T03:42:05;158663.25;;;13.61;100.00
7940;BME280;4015;48.888;9.226;2023-05-10T03:44:30;158695.22;;;13.74;100.00
7940;BME280;4015;48.888;9.226;2023-05-10T03:46:58;158686.31;;;13.70;100.00
7940;BME280;4015;48.888;9.226;2023-05-10T03:49:23;158679.88;;;13.68;100.00
7940;BME280;4015;48.888;9.226;2023-05-10T03:51:48;158669.63;;;13.64;100.00
7940;BME280;4015;48.888;9.226;2023-05-10T03:54:14;158684.97;;;13.70;100.00
7940;BME280;4015;48.888;9.226;2023-05-10T03:56:40;158701.66;;;13.76;100.00
7940;BME280;4015;48.888;9.226;2023-05-10T03:59:05;158683.69;;;13.69;100.00
7940;BME280;4015;48.888;9.226;2023-05-10T04:01:33;158681.16;;;13.68;100.00
7940;BME280;4015;48.888;9.226;2023-05-10T04:03:58;158681.16;;;13.68;100.00
7940;BME280;4015;48.888;9.226;2023-05-10T04:06:24;158700.34;;;13.76;100.00
7940;BME280;4015;48.888;9.226;2023-05-10T04:08:49;158692.69;;;13.73;100.00
7940;BME280;4015;48.888;9.226;2023-05-10T04:11:14;158695.22;;;13.74;100.00
7940;BME280;4015;48.888;9.226;2023-05-10T04:13:40;158693.97;;;13.73;100.00
7940;BME280;4015;48.888;9.226;2023-05-10T04:16:05;158690.13;;;13.72;100.00
7940;BME280;4015;48.888;9.226;2023-05-10T04:18:31;158696.50;;;13.74;100.00
7940;BME280;4015;48.888;9.226;2023-05-10T04:20:57;158695.22;;;13.74;100.00
7940;BME280;4015;48.888;9.226;2023-05-10T04:23:22;158697.78;;;13.75;100.00
7940;BME280;4015;48.888;9.226;2023-05-10T04:25:48;158706.75;;;13.79;100.00
7940;BME280;4015;48.888;9.226;2023-05-10T04:28:14;158705.50;;;13.78;100.00
7940;BME280;4015;48.888;9.226;2023-05-10T04:30:39;158719.56;;;13.84;100.00
7940;BME280;4015;48.888;9.226;2023-05-10T04:33:05;158719.56;;;13.84;99.30
7940;BME280;4015;48.888;9.226;2023-05-10T04:35:30;158702.94;;;13.77;99.66
7940;BME280;4015;48.888;9.226;2023-05-10T04:37:56;158729.78;;;13.88;99.69
7940;BME280;4015;48.888;9.226;2023-05-10T04:40:21;158719.56;;;13.84;98.80
7940;BME280;4015;48.888;9.226;2023-05-10T04:42:46;158733.66;;;13.89;100.00
7940;BME280;4015;48.888;9.226;2023-05-10T04:45:12;158741.31;;;13.92;99.05
7940;BME280;4015;48.888;9.226;2023-05-10T04:47:39;158734.94;;;13.90;99.32
7940;BME280;4015;48.888;9.226;2023-05-10T04:50:05;158737.50;;;13.91;99.56
7940;BME280;4015;48.888;9.226;2023-05-10T04:52:31;158757.97;;;13.99;98.32
7940;BME280;4015;48.888;9.226;2023-05-10T04:54:57;158768.22;;;14.03;98.61
7940;BME280;4015;48.888;9.226;2023-05-10T04:57:22;158770.75;;;14.04;98.17
7940;BME280;4015;48.888;9.226;2023-05-10T04:59:47;158774.59;;;14.06;97.33
7940;BME280;4015;48.888;9.226;2023-05-10T05:02:13;158795.06;;;14.14;98.66
7940;BME280;4015;48.888;9.226;2023-05-10T05:04:38;158797.66;;;14.15;97.06
7940;BME280;4015;48.888;9.226;2023-05-10T05:07:03;158792.50;;;14.13;97.03
7940;BME280;4015;48.888;9.226;2023-05-10T05:09:29;158788.69;;;14.11;96.77
7940;BME280;4015;48.888;9.226;2023-05-10T05:11:55;158805.31;;;14.18;96.92
7940;BME280;4015;48.888;9.226;2023-05-10T05:14:20;158809.16;;;14.19;97.55
7940;BME280;4015;48.888;9.226;2023-05-10T05:16:46;158838.59;;;14.31;97.71
7940;BME280;4015;48.888;9.226;2023-05-10T05:19:11;158853.97;;;14.37;95.29
7940;BME280;4015;48.888;9.226;2023-05-10T05:21:37;158877.09;;;14.46;95.24
7940;BME280;4015;48.888;9.226;2023-05-10T05:24:03;158895.00;;;14.53;95.37
7940;BME280;4015;48.888;9.226;2023-05-10T05:26:28;158944.94;;;14.73;94.29
7940;BME280;4015;48.888;9.226;2023-05-10T05:28:54;158898.84;;;14.55;94.35
7940;BME280;4015;48.888;9.226;2023-05-10T05:31:20;158914.22;;;14.61;96.42
7940;BME280;4015;48.888;9.226;2023-05-10T05:33:45;158957.75;;;14.78;94.62
7940;BME280;4015;48.888;9.226;2023-05-10T05:36:11;158953.88;;;14.77;95.13
7940;BME280;4015;48.888;9.226;2023-05-10T05:38:36;158974.41;;;14.85;94.33
7940;BME280;4015;48.888;9.226;2023-05-10T05:41:01;158994.88;;;14.93;93.49
7940;BME280;4015;48.888;9.226;2023-05-10T05:43:27;159015.38;;;15.01;92.71
7940;BME280;4015;48.888;9.226;2023-05-10T05:45:53;158994.88;;;14.93;92.37
7940;BME280;4015;48.888;9.226;2023-05-10T05:48:19;158987.22;;;14.90;92.14
7940;BME280;4015;48.888;9.226;2023-05-10T05:50:44;159017.97;;;15.02;92.25
7940;BME280;4015;48.888;9.226;2023-05-10T05:53:10;159025.63;;;15.05;92.77
7940;BME280;4015;48.888;9.226;2023-05-10T05:55:36;159043.56;;;15.13;91.19
7940;BME280;4015;48.888;9.226;2023-05-10T05:58:02;159073.03;;;15.24;93.21
7940;BME280;4015;48.888;9.226;2023-05-10T06:00:27;159102.50;;;15.36;92.96
7940;BME280;4015;48.888;9.226;2023-05-10T06:02:53;159110.16;;;15.39;91.62
7940;BME280;4015;48.888;9.226;2023-05-10T06:05:18;159116.59;;;15.42;91.24
7940;BME280;4015;48.888;9.226;2023-05-10T06:07:43;159101.22;;;15.35;92.30
7940;BME280;4015;48.888;9.226;2023-05-10T06:10:09;159088.41;;;15.30;91.42
7940;BME280;4015;48.888;9.226;2023-05-10T06:12:35;159124.25;;;15.45;92.15
7940;BME280;4015;48.888;9.226;2023-05-10T06:15:01;159092.22;;;15.32;91.00
7940;BME280;4015;48.888;9.226;2023-05-10T06:17:26;159090.97;;;15.31;89.73
7940;BME280;4015;48.888;9.226;2023-05-10T06:19:52;159085.84;;;15.29;91.82
7940;BME280;4015;48.888;9.226;2023-05-10T06:22:18;159079.41;;;15.27;91.37
7940;BME280;4015;48.888;9.226;2023-05-10T06:24:43;159088.41;;;15.30;90.56
7940;BME280;4015;48.888;9.226;2023-05-10T06:27:08;159128.16;;;15.46;92.82
7940;BME280;4015;48.888;9.226;2023-05-10T06:29:33;159125.53;;;15.45;92.03
7940;BME280;4015;48.888;9.226;2023-05-10T06:31:59;159149.91;;;15.55;92.17
7940;BME280;4015;48.888;9.226;2023-05-10T06:34:24;159170.44;;;15.63;89.45
7940;BME280;4015;48.888;9.226;2023-05-10T06:36:49;159171.72;;;15.63;91.76
7940;BME280;4015;48.888;9.226;2023-05-10T06:39:15;159167.88;;;15.62;89.66
7940;BME280;4015;48.888;9.226;2023-05-10T06:41:41;159147.34;;;15.54;89.98
7940;BME280;4015;48.888;9.226;2023-05-10T06:44:06;159171.72;;;15.63;90.93
7940;BME280;4015;48.888;9.226;2023-05-10T06:46:31;159217.84;;;15.82;89.88
7940;BME280;4015;48.888;9.226;2023-05-10T06:48:57;159193.53;;;15.72;87.76
7940;BME280;4015;48.888;9.226;2023-05-10T06:51:22;159240.94;;;15.91;89.17
7940;BME280;4015;48.888;9.226;2023-05-10T06:53:47;159292.22;;;16.11;88.96
7940;BME280;4015;48.888;9.226;2023-05-10T06:56:13;159306.31;;;16.17;88.85
7940;BME280;4015;48.888;9.226;2023-05-10T06:58:39;159281.94;;;16.07;86.99
7940;BME280;4015;48.888;9.226;2023-05-10T07:01:05;159313.97;;;16.20;86.37
7940;BME280;4015;48.888;9.226;2023-05-10T07:03:31;159320.41;;;16.23;88.07
7940;BME280;4015;48.888;9.226;2023-05-10T07:06:00;159371.69;;;16.43;89.54
7940;BME280;4015;48.888;9.226;2023-05-10T07:08:28;159357.56;;;16.37;87.65
7940;BME280;4015;48.888;9.226;2023-05-10T07:13:26;159375.50;;;16.44;85.25
7940;BME280;4015;48.888;9.226;2023-05-10T07:15:52;159397.34;;;16.53;86.66
7940;BME280;4015;48.888;9.226;2023-05-10T07:18:17;159393.44;;;16.52;85.88
7940;BME280;4015;48.888;9.226;2023-05-10T07:20:42;159390.91;;;16.51;86.28
7940;BME280;4015;48.888;9.226;2023-05-10T07:23:07;159374.22;;;16.44;87.20
7940;BME280;4015;48.888;9.226;2023-05-10T07:25:33;159394.72;;;16.52;84.59
7940;BME280;4015;48.888;9.226;2023-05-10T07:27:58;159397.34;;;16.53;86.33
7940;BME280;4015;48.888;9.226;2023-05-10T07:30:23;159406.28;;;16.57;86.75
7940;BME280;4015;48.888;9.226;2023-05-10T07:32:49;159430.66;;;16.66;88.64
7940;BME280;4015;48.888;9.226;2023-05-10T07:35:14;159444.81;;;16.72;85.17
7940;BME280;4015;48.888;9.226;2023-05-10T07:37:39;159470.44;;;16.82;87.17
7940;BME280;4015;48.888;9.226;2023-05-10T07:40:05;159529.44;;;17.06;85.64
7940;BME280;4015;48.888;9.226;2023-05-10T07:42:31;159498.66;;;16.93;83.45
7940;BME280;4015;48.888;9.226;2023-05-10T07:44:56;159514.03;;;16.99;82.29
7940;BME280;4015;48.888;9.226;2023-05-10T07:47:22;159474.28;;;16.84;82.29
7940;BME280;4015;48.888;9.226;2023-05-10T07:49:47;159394.72;;;16.52;84.79
7940;BME280;4015;48.888;9.226;2023-05-10T07:52:12;159407.56;;;16.57;85.84
7940;BME280;4015;48.888;9.226;2023-05-10T07:54:38;159407.56;;;16.57;85.69
7940;BME280;4015;48.888;9.226;2023-05-10T07:57:03;159414.00;;;16.60;83.29
7940;BME280;4015;48.888;9.226;2023-05-10T07:59:29;159408.84;;;16.58;84.58
7940;BME280;4015;48.888;9.226;2023-05-10T08:01:54;159370.41;;;16.42;83.17
7940;BME280;4015;48.888;9.226;2023-05-10T08:04:20;159351.19;;;16.35;83.55
7940;BME280;4015;48.888;9.226;2023-05-10T08:06:45;159371.69;;;16.43;84.05
7940;BME280;4015;48.888;9.226;2023-05-10T08:09:10;159396.00;;;16.53;82.60
7940;BME280;4015;48.888;9.226;2023-05-10T08:11:36;159396.00;;;16.53;81.64
7940;BME280;4015;48.888;9.226;2023-05-10T08:14:01;159384.50;;;16.48;79.72
7940;BME280;4015;48.888;9.226;2023-05-10T08:16:26;159392.19;;;16.51;82.20
7940;BME280;4015;48.888;9.226;2023-05-10T08:18:52;159383.22;;;16.48;82.20
7940;BME280;4015;48.888;9.226;2023-05-10T08:21:20;159334.53;;;16.28;81.02
7940;BME280;4015;48.888;9.226;2023-05-10T08:23:45;159303.75;;;16.16;79.30
7940;BME280;4015;48.888;9.226;2023-05-10T08:26:11;159261.44;;;15.99;79.91
7940;BME280;4015;48.888;9.226;2023-05-10T08:28:36;159296.03;;;16.13;78.69
7940;BME280;4015;48.888;9.226;2023-05-10T08:31:01;159289.66;;;16.10;78.63
7940;BME280;4015;48.888;9.226;2023-05-10T08:33:27;159287.09;;;16.09;79.45
7940;BME280;4015;48.888;9.226;2023-05-10T08:35:52;159299.88;;;16.14;77.83
7940;BME280;4015;48.888;9.226;2023-05-10T08:38:18;159273.00;;;16.04;77.13
7940;BME280;4015;48.888;9.226;2023-05-10T08:40:44;159311.41;;;16.19;78.29
7940;BME280;4015;48.888;9.226;2023-05-10T08:43:11;159319.13;;;16.22;77.62
7940;BME280;4015;48.888;9.226;2023-05-10T08:45:41;159293.47;;;16.12;77.47
7940;BME280;4015;48.888;9.226;2023-05-10T08:48:09;159247.34;;;15.94;79.32
7940;BME280;4015;48.888;9.226;2023-05-10T08:50:41;159203.75;;;15.76;79.37
7940;BME280;4015;48.888;9.226;2023-05-10T08:53:12;159189.66;;;15.71;79.12
7940;BME280;4015;48.888;9.226;2023-05-10T08:55:39;159212.75;;;15.80;81.01
7940;BME280;4015;48.888;9.226;2023-05-10T08:58:05;159258.88;;;15.98;78.81
7940;BME280;4015;48.888;9.226;2023-05-10T09:00:31;159313.97;;;16.20;81.72
7940;BME280;4015;48.888;9.226;2023-05-10T09:03:00;159380.63;;;16.46;77.78
7940;BME280;4015;48.888;9.226;2023-05-10T09:05:26;159375.50;;;16.44;75.81
7940;BME280;4015;48.888;9.226;2023-05-10T09:07:52;159465.31;;;16.80;76.24
7940;BME280;4015;48.888;9.226;2023-05-10T09:10:18;159565.34;;;17.20;77.83
7940;BME280;4015;48.888;9.226;2023-05-10T09:12:44;159647.41;;;17.52;72.49
7940;BME280;4015;48.888;9.226;2023-05-10T09:15:11;159734.72;;;17.87;73.09
7940;BME280;4015;48.888;9.226;2023-05-10T09:17:38;159798.88;;;18.13;72.66
7940;BME280;4015;48.888;9.226;2023-05-10T09:20:04;159830.97;;;18.25;72.80
7940;BME280;4015;48.888;9.226;2023-05-10T09:22:30;159820.66;;;18.21;72.10
7940;BME280;4015;48.888;9.226;2023-05-10T09:27:31;159824.56;;;18.23;69.73
7940;BME280;4015;48.888;9.226;2023-05-10T09:29:56;159797.59;;;18.12;72.02
7940;BME280;4015;48.888;9.226;2023-05-10T09:32:36;159856.63;;;18.36;70.19
7940;BME280;4015;48.888;9.226;2023-05-10T09:35:12;159806.53;;;18.16;70.41
7940;BME280;4015;48.888;9.226;2023-05-10T09:37:40;159845.06;;;18.31;69.87
7940;BME280;4015;48.888;9.226;2023-05-10T09:40:08;159904.13;;;18.54;69.22
7940;BME280;4015;48.888;9.226;2023-05-10T09:42:36;159884.84;;;18.47;68.54
7940;BME280;4015;48.888;9.226;2023-05-10T09:45:03;159884.84;;;18.47;67.71
7940;BME280;4015;48.888;9.226;2023-05-10T09:47:29;159898.97;;;18.52;66.49
7940;BME280;4015;48.888;9.226;2023-05-10T09:49:57;160000.44;;;18.93;67.08
7940;BME280;4015;48.888;9.226;2023-05-10T09:52:28;160100.56;;;19.32;66.76
7940;BME280;4015;48.888;9.226;2023-05-10T09:54:54;160199.50;;;19.72;65.45
7940;BME280;4015;48.888;9.226;2023-05-10T09:57:24;160291.97;;;20.08;66.43
7940;BME280;4015;48.888;9.226;2023-05-10T09:59:50;160327.94;;;20.23;65.63
7940;BME280;4015;48.888;9.226;2023-05-10T10:02:16;160390.94;;;20.47;64.21
7940;BME280;4015;48.888;9.226;2023-05-10T10:04:42;160304.84;;;20.13;67.13
7940;BME280;4015;48.888;9.226;2023-05-10T10:07:07;160234.16;;;19.85;68.47
7940;BME280;4015;48.888;9.226;2023-05-10T10:09:34;160087.72;;;19.27;67.94
7940;BME280;4015;48.888;9.226;2023-05-10T10:12:01;159936.25;;;18.67;70.40
7940;BME280;4015;48.888;9.226;2023-05-10T10:14:27;159906.69;;;18.55;68.36
7940;BME280;4015;48.888;9.226;2023-05-10T10:16:53;159827.13;;;18.24;71.41
7940;BME280;4015;48.888;9.226;2023-05-10T10:19:19;159759.06;;;17.97;71.78
7940;BME280;4015;48.888;9.226;2023-05-10T10:21:46;159702.66;;;17.74;72.36
7940;BME280;4015;48.888;9.226;2023-05-10T10:24:12;159702.66;;;17.74;73.80
7940;BME280;4015;48.888;9.226;2023-05-10T10:26:37;159647.41;;;17.52;74.22
7940;BME280;4015;48.888;9.226;2023-05-10T10:34:08;159647.41;;;17.52;72.04
7940;BME280;4015;48.888;9.226;2023-05-10T10:36:45;159693.59;;;17.71;72.28
7940;BME280;4015;48.888;9.226;2023-05-10T10:39:10;159739.84;;;17.89;70.93
7940;BME280;4015;48.888;9.226;2023-05-10T10:41:38;159688.47;;;17.69;68.44
7940;BME280;4015;48.888;9.226;2023-05-10T10:44:24;159651.28;;;17.54;69.01
7940;BME280;4015;48.888;9.226;2023-05-10T10:52:26;159834.78;;;18.27;70.33
7940;BME280;4015;48.888;9.226;2023-05-10T10:55:19;159910.53;;;18.57;67.58
7940;BME280;4015;48.888;9.226;2023-05-10T10:57:50;159942.66;;;18.70;66.95
7940;BME280;4015;48.888;9.226;2023-05-10T11:00:25;159845.06;;;18.31;68.30
7940;BME280;4015;48.888;9.226;2023-05-10T11:02:56;159839.91;;;18.29;68.17
7940;BME280;4015;48.888;9.226;2023-05-10T11:05:51;159820.66;;;18.21;68.87
7940;BME280;4015;48.888;9.226;2023-05-10T11:08:33;159873.31;;;18.42;68.26
7940;BME280;4015;48.888;9.226;2023-05-10T11:13:44;159712.88;;;17.78;65.89
7940;BME280;4015;48.888;9.226;2023-05-10T11:16:20;159634.63;;;17.47;67.80
7940;BME280;4015;48.888;9.226;2023-05-10T11:19:01;159750.13;;;17.93;66.77
7940;BME280;4015;48.888;9.226;2023-05-10T11:21:28;159746.28;;;17.92;66.90
7940;BME280;4015;48.888;9.226;2023-05-10T11:23:56;159836.06;;;18.27;65.50
7940;BME280;4015;48.888;9.226;2023-05-10T11:26:23;159877.16;;;18.44;65.63
7940;BME280;4015;48.888;9.226;2023-05-10T11:28:52;159916.91;;;18.59;65.16
7940;BME280;4015;48.888;9.226;2023-05-10T11:31:19;160094.19;;;19.30;63.74
7940;BME280;4015;48.888;9.226;2023-05-10T11:33:49;160220.03;;;19.80;63.46
7940;BME280;4015;48.888;9.226;2023-05-10T11:36:18;160486.03;;;20.85;61.68
7940;BME280;4015;48.888;9.226;2023-05-10T11:38:44;160442.38;;;20.68;60.47
7940;BME280;4015;48.888;9.226;2023-05-10T11:41:10;160509.19;;;20.94;60.86
7940;BME280;4015;48.888;9.226;2023-05-10T11:43:37;160542.59;;;21.08;59.16
7940;BME280;4015;48.888;9.226;2023-05-10T11:46:05;160504.03;;;20.92;58.90
7940;BME280;4015;48.888;9.226;2023-05-10T11:48:31;160390.94;;;20.47;58.86
7940;BME280;4015;48.888;9.226;2023-05-10T11:50:56;160189.25;;;19.67;58.92
7940;BME280;4015;48.888;9.226;2023-05-10T11:53:23;160082.59;;;19.25;62.73
7940;BME280;4015;48.888;9.226;2023-05-10T11:55:48;160069.75;;;19.20;65.52
7940;BME280;4015;48.888;9.226;2023-05-10T11:58:13;160054.34;;;19.14;61.23
7940;BME280;4015;48.888;9.226;2023-05-10T12:00:39;159851.47;;;18.33;61.71
7940;BME280;4015;48.888;9.226;2023-05-10T12:03:05;159783.47;;;18.06;63.86
7940;BME280;4015;48.888;9.226;2023-05-10T12:05:32;159863.03;;;18.38;67.13
7940;BME280;4015;48.888;9.226;2023-05-10T12:08:12;159963.19;;;18.78;62.44
7940;BME280;4015;48.888;9.226;2023-05-10T12:10:37;159931.03;;;18.65;63.76
7940;BME280;4015;48.888;9.226;2023-05-10T12:13:03;159972.19;;;18.81;62.13
7940;BME280;4015;48.888;9.226;2023-05-10T12:15:28;159946.50;;;18.71;61.96
7940;BME280;4015;48.888;9.226;2023-05-10T12:17:53;159913.09;;;18.58;62.72
7940;BME280;4015;48.888;9.226;2023-05-10T12:20:21;159860.47;;;18.37;62.53
7940;BME280;4015;48.888;9.226;2023-05-10T12:22:51;159813.00;;;18.18;62.79
7940;BME280;4015;48.888;9.226;2023-05-10T12:25:18;159773.19;;;18.02;62.82
7940;BME280;4015;48.888;9.226;2023-05-10T12:27:57;159700.09;;;17.73;63.83
7940;BME280;4015;48.888;9.226;2023-05-10T12:30:27;159607.69;;;17.37;62.24
7940;BME280;4015;48.888;9.226;2023-05-10T12:33:00;159643.56;;;17.51;63.38
7940;BME280;4015;48.888;9.226;2023-05-10T12:35:25;159643.56;;;17.51;63.92
7940;BME280;4015;48.888;9.226;2023-05-10T12:37:51;159714.22;;;17.79;63.42
7940;BME280;4015;48.888;9.226;2023-05-10T12:40:16;159707.75;;;17.76;62.41
7940;BME280;4015;48.888;9.226;2023-05-10T12:42:42;159651.28;;;17.54;62.78
7940;BME280;4015;48.888;9.226;2023-05-10T12:45:08;159661.53;;;17.58;62.14
7940;BME280;4015;48.888;9.226;2023-05-10T12:47:34;159689.75;;;17.69;63.20
7940;BME280;4015;48.888;9.226;2023-05-10T12:50:00;159736.00;;;17.88;62.16
7940;BME280;4015;48.888;9.226;2023-05-10T12:52:26;159756.50;;;17.96;62.33
7940;BME280;4015;48.888;9.226;2023-05-10T12:54:52;159801.44;;;18.14;61.78
7940;BME280;4015;48.888;9.226;2023-05-10T12:57:18;159784.75;;;18.07;61.81
7940;BME280;4015;48.888;9.226;2023-05-10T12:59:44;159800.16;;;18.13;61.11
7940;BME280;4015;48.888;9.226;2023-05-10T13:02:09;159828.41;;;18.24;62.08
7940;BME280;4015;48.888;9.226;2023-05-10T13:04:35;159819.38;;;18.21;60.45
7940;BME280;4015;48.888;9.226;2023-05-10T13:07:04;159928.50;;;18.64;61.28
7940;BME280;4015;48.888;9.226;2023-05-10T13:09:30;159964.47;;;18.78;60.81
7940;BME280;4015;48.888;9.226;2023-05-10T13:11:55;160050.50;;;19.12;62.10
7940;BME280;4015;48.888;9.226;2023-05-10T13:14:21;160027.38;;;19.03;63.85
7940;BME280;4015;48.888;9.226;2023-05-10T13:16:47;160050.50;;;19.12;61.95
7940;BME280;4015;48.888;9.226;2023-05-10T13:19:15;160089.00;;;19.28;60.43
7940;BME280;4015;48.888;9.226;2023-05-10T13:21:41;160126.28;;;19.43;62.66
7940;BME280;4015;48.888;9.226;2023-05-10T13:24:07;160207.22;;;19.75;59.59
7940;BME280;4015;48.888;9.226;2023-05-10T13:26:32;160036.38;;;19.07;59.09
7940;BME280;4015;48.888;9.226;2023-05-10T13:28:57;159928.50;;;18.64;60.00
7940;BME280;4015;48.888;9.226;2023-05-10T13:31:23;159820.66;;;18.21;60.54
7940;BME280;4015;48.888;9.226;2023-05-10T13:33:48;159796.31;;;18.12;63.02